General Aviation Weather

Text Reports

Enter one or more of the following location identifiers separated by a space:

Zip Code, Four-Character ICAO or Three-Character IATA airport codes.

METAR - Aviation Routine Weather Report
GMMX - Marrakech,
Updated at 07:30 PM GMT am 03. Dezember 2016 (19:30 WET):
METAR GMMX 031930Z 28003KT 230V330 7000 RA FEW010 BKN020 15/13 Q1010 NOSIG
TAF - Terminal Area Forecast
GMMX - Marrakech,
Updated at 07:30 PM GMT am 03. Dezember 2016 (19:30 WET):
TAF GMMX 031700Z 0318/0424 32008KT 6000 RA BKN020 SCT080
     BECMG 0402/0405 NSW
     TEMPO 0412/0418 34012KT 5000 RA=
TAF AMD KSLI 031730Z 0317/0419 03012KT 9999 SKC 520009 QNH3011INS
     BECMG 0400/0401 03009KT 9999 SKC QNH3002INS
     BECMG 0405/0406 VRB06KT 9999 SKC QNH3003INS TX20/0322Z
     TN05/0415Z=
Decoded:
ID: GMMX   Marrakech/Menar, MC
REPORT TIME:  3 17: 0
VALID TIME: 3 December AT 18:00Z to 4 December AT 24:00Z.
INITIAL WX
   WINDS: 320 AT 8
   VISIBILITY: 3.7 MILES
   WEATHER: RA
   CLOUDS: 20 BKN
   CLOUDS: 80 SCT
WX BECOMING FROM 02Z TO 05Z
   WEATHER: NSW
TEMPORARY WX FROM 12Z TO 18Z
   WINDS: 340 AT 12
   VISIBILITY: 3.1 MILES
   COMMENTS: RA= 

PIREP - Pilot Weather Report
GMMX - Marrakech,
Updated at 07:30 PM GMT am 03. Dezember 2016 (19:30 WET):
No PIREP is currently available for this location.
AIRMET - Airmens Meteorological Information
GMMX - Marrakech,
Updated at 07:30 PM GMT am 03. Dezember 2016 (19:30 WET):
No AIRMET is currently available for this location.
SIGMET - Significant Meteorological Information
GMMX - Marrakech,
Updated at 07:30 PM GMT am 03. Dezember 2016 (19:30 WET):
No SIGMET is currently available for this location.
NOTAM - Notice to Airmen
GMMX - Marrakech,
Updated at 07:30 PM GMT am 03. Dezember 2016 (19:30 WET):
No NOTAM is currently available for this location.
Forecast Area
GMMX - Marrakech,
Updated at 07:30 PM GMT am 03. Dezember 2016 (19:30 WET):
No NOTAM is currently available for this location.
Aviation Weather Maps